Flight Track Log - Related Links

Times and Time Zones

All times are in EDT time to prevent confusion due to time zone crossing. See the NKS904 flight status page for this flight to view local times or setup timezone preferences in your user account.

Time Position Orientation Groundspeed Altitude Reporting Facility
EDT Latitude Longitude Course Direction KTS MPH feet Rate Location/Type
Sun 05:11:23 PM 32.8630 -97.0300 181° South 172 198 2,000  Level FlightAware ADS-B
Sun 05:11:43 PM 32.8460 -97.0310 183° South 195 224 2,200 563 Climbing FlightAware ADS-B
Sun 05:11:55 PM 32.8350 -97.0310 180° South 211 243 2,300 1,227 Climbing FlightAware ADS-B
Sun 05:12:27 PM 32.7990 -97.0300 179° South 253 291 3,100 1,650 Climbing FlightAware ADS-B
Sun 05:12:35 PM 32.7900 -97.0260 160° South 256 295 3,400 2,000 Climbing FlightAware ADS-B
Sun 05:12:39 PM 32.7860 -97.0240 157° South 258 297 3,500 2,500 Climbing FlightAware ADS-B
Sun 05:12:47 PM 32.7790 -97.0170 140° Southeast 261 300 3,900 2,625 Climbing FlightAware ADS-B
Sun 05:12:55 PM 32.7730 -97.0080 128° Southeast 263 303 4,200 2,625 Climbing FlightAware ADS-B
Sun 05:13:03 PM 32.7690 -96.9970 113° Southeast 265 305 4,600 3,000 Climbing FlightAware ADS-B
Sun 05:13:09 PM 32.7680 -96.9890 98° East 271 312 4,900 3,000 Climbing FlightAware ADS-B
Sun 05:13:31 PM 32.7720 -96.9560 82° East 274 315 6,000 2,842 Climbing FlightAware ADS-B
Sun 05:13:47 PM 32.7760 -96.9320 79° East 279 321 6,700 2,850 Climbing FlightAware ADS-B
Sun 05:14:11 PM 32.7820 -96.8950 79° East 285 328 7,900 3,136 Climbing FlightAware ADS-B
Sun 05:14:31 PM 32.7870 -96.8650 79° East 282 325 9,000 3,000 Climbing FlightAware ADS-B
Sun 05:15:05 PM 32.7950 -96.8120 80° East 285 328 10,600 1,833 Climbing FlightAware ADS-B
Sun 05:15:43 PM 32.8040 -96.7490 80° East 328 377 11,200 1,167 Climbing FlightAware ADS-B
Sun 05:16:17 PM 32.8140 -96.6860 79° East 352 405 12,000 1,886 Climbing FlightAware ADS-B
Sun 05:16:53 PM 32.8240 -96.6150 80° East 358 412 13,400 2,167 Climbing FlightAware ADS-B
Sun 05:17:29 PM 32.8340 -96.5460 80° East 365 420 14,600 2,029 Climbing FlightAware ADS-B
Sun 05:18:01 PM 32.8440 -96.4820 79° East 369 425 15,700 1,913 Climbing FlightAware ADS-B
Sun 05:18:38 PM 32.8540 -96.4090 81° East 375 432 16,800 1,800 Climbing FlightAware ADS-B
Sun 05:19:11 PM 32.8640 -96.3390 80° East 383 441 17,800 1,565 Climbing FlightAware ADS-B
Sun 05:19:47 PM 32.8670 -96.2620 87° East 393 452 18,600 1,397 Climbing FlightAware ADS-B
Sun 05:20:24 PM 32.8680 -96.1830 89° East 400 460 19,500 1,543 Climbing FlightAware ADS-B
Sun 05:20:57 PM 32.8700 -96.1100 88° East 404 465 20,400 1,478 Climbing FlightAware ADS-B
Sun 05:21:33 PM 32.8710 -96.0300 89° East 412 474 21,200 1,324 Climbing FlightAware ADS-B
Sun 05:22:05 PM 32.8720 -95.9570 89° East 415 478 21,900 1,235 Climbing FlightAware ADS-B
Sun 05:22:41 PM 32.8740 -95.8730 88° East 421 484 22,600 1,233 Climbing FlightAware ADS-B
Sun 05:23:18 PM 32.8750 -95.7890 89° East 425 489 23,400 1,250 Climbing FlightAware ADS-B
Sun 05:23:53 PM 32.8760 -95.7080 89° East 428 493 24,100 1,222 Climbing FlightAware ADS-B
Sun 05:24:12 PM 32.8769 -95.6591 89° East 433 498 24,500 1,286 Climbing FlightAware ADS-B
Sun 05:24:49 PM 32.8782 -95.5705 89° East 436 502 25,300 1,271 Climbing FlightAware ADS-B
Sun 05:25:37 PM 32.8800 -95.4550 89° East 440 506 26,300 1,244 Climbing FlightAware ADS-B
Sun 05:26:11 PM 32.8810 -95.3730 89° East 439 505 27,000 1,099 Climbing FlightAware ADS-B
Sun 05:26:48 PM 32.8930 -95.2850 81° East 445 512 27,600 1,000 Climbing FlightAware ADS-B
Sun 05:27:11 PM 32.9023 -95.2275 79° East 446 513 28,000 844 Climbing FlightAware ADS-B
Sun 05:27:52 PM 32.9170 -95.1302 80° East 452 520 28,500 833 Climbing FlightAware ADS-B
Sun 05:28:23 PM 32.9285 -95.0540 80° East 456 525 29,000 762 Climbing FlightAware ADS-B
Sun 05:28:55 PM 32.9407 -94.9734 80° East 463 533 29,300 762 Climbing FlightAware ADS-B
Sun 05:29:26 PM 32.9525 -94.8955 80° East 464 534 29,800 1,082 Climbing FlightAware ADS-B
Sun 05:29:56 PM 32.9639 -94.8196 80° East 462 532 30,400 1,385 Climbing FlightAware ADS-B
Sun 05:30:31 PM 32.9767 -94.7336 80° East 453 521 31,300 1,437 Climbing FlightAware ADS-B
Sun 05:31:07 PM 32.9897 -94.6452 80° East 454 522 32,100 1,371 Climbing FlightAware ADS-B
Sun 05:31:41 PM 33.0020 -94.5637 80° East 442 509 32,900 1,015 Climbing FlightAware ADS-B
Sun 05:32:12 PM 33.0127 -94.4908 80° East 445 512 33,200 417 Climbing FlightAware ADS-B
Sun 05:32:53 PM 33.0250 -94.4050 80° East 446 513 33,400 960 Climbing FlightAware ADS-B
Sun 05:33:02 PM 33.0304 -94.3692 80° East 447 514 34,000 1,684 Climbing FlightAware ADS-B
Sun 05:33:50 PM 33.0469 -94.2545 80° East 434 499 35,000 698 Climbing FlightAware ADS-B
Sun 05:34:28 PM 33.0596 -94.1666 80° East 432 497 35,000  Level FlightAware ADS-B
Sun 05:34:58 PM 33.0699 -94.0955 80° East 434 499 35,000  Level FlightAware ADS-B
Sun 05:35:30 PM 33.0804 -94.0215 80° East 436 502 35,000  Level FlightAware ADS-B
Sun 05:36:04 PM 33.0921 -93.9405 80° East 436 502 35,000  Level FlightAware ADS-B
Sun 05:36:51 PM 33.1079 -93.8290 80° East 436 502 35,000  Level FlightAware ADS-B
Sun 05:37:22 PM 33.1183 -93.7559 80° East 436 502 35,000  Level FlightAware ADS-B
Sun 05:38:22 PM 33.1379 -93.6148 81° East 434 499 35,000  Level FlightAware ADS-B
Sun 05:38:57 PM 33.1492 -93.5329 81° East 434 499 35,000  Level FlightAware ADS-B
Sun 05:39:28 PM 33.1593 -93.4601 81° East 434 499 35,000  Level FlightAware ADS-B
Sun 05:40:02 PM 33.1690 -93.3880 81° East 434 499 35,000  Level FlightAware ADS-B
Sun 05:40:27 PM 33.1786 -93.3211 80° East 434 499 35,000  Level FlightAware ADS-B
Sun 05:41:13 PM 33.1920 -93.2210 81° East 431 496 35,000  Level FlightAware ADS-B
Sun 05:41:52 PM 33.2050 -93.1240 81° East 428 493 35,000  Level FlightAware ADS-B
Sun 05:42:22 PM 33.2150 -93.0560 80° East 428 493 35,000  Level FlightAware ADS-B
Sun 05:42:56 PM 33.2250 -92.9750 82° East 427 491 35,000  Level FlightAware ADS-B
Sun 05:43:34 PM 33.2370 -92.9000 79° East 427 491 35,000  Level FlightAware ADS-B
Sun 05:44:11 PM 33.2470 -92.8270 81° East 427 491 35,000  Level FlightAware ADS-B
Sun 05:44:47 PM 33.2580 -92.7560 79° East 427 491 35,000  Level FlightAware ADS-B
Sun 05:45:23 PM 33.2680 -92.6850 80° East 427 491 35,000  Level FlightAware ADS-B
Sun 05:46:00 PM 33.2790 -92.6110 80° East 427 491 35,000  Level FlightAware ADS-B
Sun 05:46:36 PM 33.2900 -92.5400 79° East 427 491 35,000  Level FlightAware ADS-B
Sun 05:47:12 PM 33.3000 -92.4690 80° East 427 491 35,000  Level FlightAware ADS-B
Sun 05:47:48 PM 33.3110 -92.3980 79° East 427 491 35,000  Level FlightAware ADS-B
Sun 05:48:24 PM 33.3210 -92.3260 81° East 427 491 35,000  Level FlightAware ADS-B
Sun 05:49:00 PM 33.3320 -92.2550 79° East 427 491 35,000  Level FlightAware ADS-B
Sun 05:49:36 PM 33.3420 -92.1840 80° East 427 491 35,000  Level FlightAware ADS-B
Sun 05:50:13 PM 33.3530 -92.1110 80° East 427 491 35,000  Level FlightAware ADS-B
Sun 05:50:49 PM 33.3630 -92.0390 81° East 427 491 35,000  Level FlightAware ADS-B
Sun 05:51:25 PM 33.3740 -91.9680 79° East 427 491 35,000  Level FlightAware ADS-B
Sun 05:52:01 PM 33.3840 -91.8970 80° East 427 491 35,000  Level FlightAware ADS-B
Sun 05:52:37 PM 33.3950 -91.8250 80° East 427 491 35,000 2,308 Level FlightAware ADS-B
Sun 05:52:53 PM 33.0220 -91.6270 156° South 414 476 37,000 2,143 Climbing FlightAware ADS-B
Sun 05:53:33 PM 33.0060 -91.5520 104° East 414 476 37,000  Level FlightAware ADS-B
Sun 05:54:10 PM 32.9910 -91.4820 104° East 414 476 37,000  Level FlightAware ADS-B
Sun 05:54:44 PM 32.9720 -91.3970 105° East 414 476 37,000  Level FlightAware ADS-B
Sun 05:55:21 PM 32.9580 -91.3270 103° East 414 476 37,000  Level FlightAware ADS-B
Sun 05:56:13 PM 32.9290 -91.1960 105° East 413 475 37,000  Level FlightAware ADS-B
Sun 05:56:49 PM 32.9090 -91.1100 105° East 413 475 37,000  Level FlightAware ADS-B
Sun 05:57:21 PM 32.8940 -91.0400 104° East 413 475 37,000  Level FlightAware ADS-B
Sun 05:57:58 PM 32.8750 -90.9560 105° East 412 474 37,000  Level FlightAware ADS-B
Sun 05:58:37 PM 32.8570 -90.8740 105° East 412 474 37,000  Level FlightAware ADS-B
Sun 05:59:11 PM 32.8400 -90.7970 105° East 412 474 37,000  Level FlightAware ADS-B
Sun 05:59:54 PM 32.8220 -90.7120 104° East 411 473 37,000  Level FlightAware ADS-B
Sun 06:00:30 PM 32.8080 -90.6450 104° East 411 473 37,000  Level FlightAware ADS-B
Sun 06:00:56 PM 32.7890 -90.5690 107° East 408 470 37,000  Level FlightAware ADS-B
Sun 06:01:50 PM 32.7630 -90.4530 105° East 406 467 37,000  Level FlightAware ADS-B
Sun 06:02:22 PM 32.7470 -90.3830 105° East 405 466 37,000  Level FlightAware ADS-B
Sun 06:02:59 PM 32.7290 -90.3040 105° East 406 467 37,000  Level FlightAware ADS-B
Sun 06:03:32 PM 32.7130 -90.2350 105° East 405 466 37,000 -87 Level FlightAware ADS-B
Sun 06:04:08 PM 32.6960 -90.1570 104° East 409 471 36,900  Descending FlightAware ADS-B
Sun 06:04:43 PM 32.6790 -90.0820 105° East 411 473 37,000 83 Climbing FlightAware ADS-B
Sun 06:05:20 PM 32.6600 -90.0000 105° East 413 475 37,000  Level FlightAware ADS-B
Sun 06:05:51 PM 32.6450 -89.9340 105° East 412 474 37,000 90 Level FlightAware ADS-B
Sun 06:06:27 PM 32.6260 -89.8540 106° East 410 472 37,100  Climbing FlightAware ADS-B
Sun 06:07:04 PM 32.6070 -89.7730 106° East 409 471 37,000 -83 Descending FlightAware ADS-B
Sun 06:07:39 PM 32.5900 -89.6970 105° East 408 470 37,000  Level FlightAware ADS-B
Sun 06:08:12 PM 32.5740 -89.6290 106° East 408 470 37,000  Level FlightAware ADS-B
Sun 06:08:48 PM 32.5550 -89.5490 106° East 409 471 37,000  Level FlightAware ADS-B
Sun 06:09:24 PM 32.5370 -89.4700 105° East 410 472 37,000  Level FlightAware ADS-B
Sun 06:10:00 PM 32.5190 -89.3940 106° East 412 474 37,000  Level FlightAware ADS-B
Sun 06:10:30 PM 32.5030 -89.3290 106° East 413 475 37,000  Level FlightAware ADS-B
Sun 06:10:56 PM 32.4900 -89.2710 105° East 414 476 37,000  Level FlightAware ADS-B
Sun 06:11:45 PM 32.4640 -89.1640 106° East 417 480 37,000  Level FlightAware ADS-B
Sun 06:12:22 PM 32.4450 -89.0840 106° East 419 482 37,000  Level FlightAware ADS-B
Sun 06:12:57 PM 32.4270 -89.0060 105° East 420 483 37,000  Level FlightAware ADS-B
Sun 06:13:27 PM 32.4110 -88.9380 106° East 422 486 37,000  Level FlightAware ADS-B
Sun 06:14:04 PM 32.3910 -88.8560 106° East 424 488 37,000  Level FlightAware ADS-B
Sun 06:14:39 PM 32.3720 -88.7790 106° East 425 489 37,000  Level FlightAware ADS-B
Sun 06:15:14 PM 32.3520 -88.7030 107° East 426 490 37,000  Level FlightAware ADS-B
Sun 06:15:49 PM 32.3310 -88.6230 107° East 425 489 37,000  Level FlightAware ADS-B
Sun 06:16:27 PM 32.3080 -88.5390 108° East 425 489 37,000  Level FlightAware ADS-B
Sun 06:17:02 PM 32.2870 -88.4600 107° East 423 487 37,000  Level FlightAware ADS-B
Sun 06:17:33 PM 32.2700 -88.3930 107° East 422 486 37,000  Level FlightAware ADS-B
Sun 06:18:12 PM 32.2470 -88.3100 108° East 421 484 37,000  Level FlightAware ADS-B
Sun 06:18:48 PM 32.2260 -88.2290 107° East 421 484 37,000  Level FlightAware ADS-B
Sun 06:19:19 PM 32.2070 -88.1610 108° East 420 483 37,000  Level FlightAware ADS-B
Sun 06:19:55 PM 32.1860 -88.0820 107° East 421 484 37,000  Level FlightAware ADS-B
Sun 06:20:30 PM 32.1650 -88.0060 108° East 421 484 37,000  Level FlightAware ADS-B
Sun 06:21:03 PM 32.1470 -87.9360 107° East 422 486 37,000  Level FlightAware ADS-B
Sun 06:21:39 PM 32.1250 -87.8550 108° East 421 484 37,000  Level FlightAware ADS-B
Sun 06:22:10 PM 32.1060 -87.7870 108° East 420 483 37,000  Level FlightAware ADS-B
Sun 06:22:51 PM 32.0820 -87.6990 108° East 419 482 37,000  Level FlightAware ADS-B
Sun 06:23:28 PM 32.0600 -87.6180 108° East 420 483 37,000  Level FlightAware ADS-B
Sun 06:23:59 PM 32.0420 -87.5540 108° East 421 484 37,000  Level FlightAware ADS-B
Sun 06:24:35 PM 32.0200 -87.4730 108° East 422 486 37,000  Level FlightAware ADS-B
Sun 06:25:17 PM 31.9940 -87.3790 108° East 424 488 37,000  Level FlightAware ADS-B
Sun 06:25:51 PM 31.9740 -87.3070 108° East 424 488 37,000  Level FlightAware ADS-B
Sun 06:26:29 PM 31.9500 -87.2210 108° East 425 489 37,000  Level FlightAware ADS-B
Sun 06:27:03 PM 31.9300 -87.1460 107° East 425 489 37,000  Level FlightAware ADS-B
Sun 06:27:39 PM 31.9080 -87.0680 108° East 425 489 37,000  Level FlightAware ADS-B
Sun 06:28:11 PM 31.8880 -86.9970 108° East 425 489 37,000  Level FlightAware ADS-B
Sun 06:28:47 PM 31.8660 -86.9180 108° East 425 489 37,000  Level FlightAware ADS-B
Sun 06:29:25 PM 31.8420 -86.8340 109° East 426 490 37,000  Level FlightAware ADS-B
Sun 06:29:57 PM 31.8230 -86.7650 108° East 426 490 37,000  Level FlightAware ADS-B
Sun 06:30:33 PM 31.8000 -86.6850 109° East 427 491 37,000  Level FlightAware ADS-B
Sun 06:31:07 PM 31.7790 -86.6100 108° East 427 491 37,000  Level FlightAware ADS-B
Sun 06:31:41 PM 31.7580 -86.5370 109° East 428 493 37,000  Level FlightAware ADS-B
Sun 06:32:19 PM 31.7340 -86.4520 108° East 430 495 37,000  Level FlightAware ADS-B
Sun 06:32:51 PM 31.7140 -86.3810 108° East 431 496 37,000  Level FlightAware ADS-B
Sun 06:33:27 PM 31.6910 -86.3020 109° East 431 496 37,000  Level FlightAware ADS-B
Sun 06:34:03 PM 31.6680 -86.2220 109° East 431 496 37,000  Level FlightAware ADS-B
Sun 06:34:37 PM 31.6470 -86.1480 108° East 431 496 37,000  Level FlightAware ADS-B
Sun 06:35:13 PM 31.6240 -86.0680 109° East 431 496 37,000  Level FlightAware ADS-B
Sun 06:35:47 PM 31.6020 -85.9920 109° East 431 496 37,000  Level FlightAware ADS-B
Sun 06:36:23 PM 31.5780 -85.9110 109° East 431 496 37,000  Level FlightAware ADS-B
Sun 06:36:59 PM 31.5550 -85.8320 109° East 431 496 37,000  Level FlightAware ADS-B
Sun 06:37:35 PM 31.5320 -85.7520 109° East 432 497 37,000  Level FlightAware ADS-B
Sun 06:38:07 PM 31.5110 -85.6810 109° East 432 497 37,000  Level FlightAware ADS-B
Sun 06:38:49 PM 31.4890 -85.6030 108° East 432 497 37,000  Level FlightAware ADS-B
Sun 06:39:23 PM 31.4630 -85.5160 109° East 432 497 37,000  Level FlightAware ADS-B
Sun 06:39:55 PM 31.4420 -85.4450 109° East 431 496 37,000  Level FlightAware ADS-B
Sun 06:40:33 PM 31.4220 -85.3730 108° East 431 496 37,000  Level FlightAware ADS-B
Sun 06:41:09 PM 31.3960 -85.2900 110° East 432 497 37,000  Level FlightAware ADS-B
Sun 06:41:46 PM 31.3760 -85.2200 108° East 432 497 37,000  Level FlightAware ADS-B
Sun 06:42:22 PM 31.3560 -85.1520 109° East 432 497 37,000  Level FlightAware ADS-B
Sun 06:42:58 PM 31.3360 -85.0850 109° East 432 497 37,000  Level FlightAware ADS-B
Sun 06:43:34 PM 31.3160 -85.0170 109° East 432 497 37,000  Level FlightAware ADS-B
Sun 06:44:10 PM 31.2960 -84.9490 109° East 432 497 37,000  Level FlightAware ADS-B
Sun 06:44:46 PM 31.2760 -84.8820 109° East 432 497 37,000  Level FlightAware ADS-B
Sun 06:47:01 PM 31.1110 -84.5330 119° Southeast 438 504 37,000  Level FlightAware ADS-B
Sun 06:47:31 PM 31.0790 -84.4720 121° Southeast 438 504 37,000  Level FlightAware ADS-B
Sun 06:48:11 PM 31.0430 -84.4030 121° Southeast 438 504 37,000  Level FlightAware ADS-B
Sun 06:48:51 PM 30.9890 -84.3050 123° Southeast 440 506 37,000  Level FlightAware ADS-B
Sun 06:49:42 PM 30.9330 -84.2010 122° Southeast 442 509 37,000  Level FlightAware ADS-B
Sun 06:50:21 PM 30.8920 -84.1250 122° Southeast 442 509 37,000  Level FlightAware ADS-B
Sun 06:50:56 PM 30.8540 -84.0540 122° Southeast 442 509 37,000  Level FlightAware ADS-B
Sun 06:51:41 PM 30.8050 -83.9630 122° Southeast 442 509 37,000  Level FlightAware ADS-B
Sun 06:52:11 PM 30.7770 -83.9110 122° Southeast 442 509 37,000  Level FlightAware ADS-B
Sun 06:52:51 PM 30.7290 -83.8230 122° Southeast 444 511 37,000 -771 Level FlightAware ADS-B
Sun 06:53:21 PM 30.6960 -83.7610 122° Southeast 451 519 36,100 -2,031 Descending FlightAware ADS-B
Sun 06:53:56 PM 30.6580 -83.6920 123° Southeast 446 513 34,800 -2,240 Descending FlightAware ADS-B
Sun 06:54:36 PM 30.6150 -83.6120 122° Southeast 440 506 33,300 -2,301 Descending FlightAware ADS-B
Sun 06:55:09 PM 30.5780 -83.5440 122° Southeast 436 502 32,000 -2,531 Descending FlightAware ADS-B
Sun 06:55:40 PM 30.5440 -83.4820 122° Southeast 439 505 30,600 -2,696 Descending FlightAware ADS-B
Sun 06:56:18 PM 30.5030 -83.4070 122° Southeast 444 511 28,900 -1,342 Descending FlightAware ADS-B
Sun 06:56:56 PM 30.4680 -83.3420 122° Southeast 444 511 28,900 -1,583 Level FlightAware ADS-B
Sun 06:57:30 PM 30.4240 -83.2630 123° Southeast 429 494 27,000 -1,652 Descending FlightAware ADS-B
Sun 06:58:05 PM 30.3880 -83.1970 122° Southeast 431 496 27,000  Level FlightAware ADS-B
Sun 06:58:39 PM 30.3500 -83.1300 123° Southeast 430 495 27,000 -348 Level FlightAware ADS-B
Sun 06:59:14 PM 30.3130 -83.0610 122° Southeast 427 491 26,600 -771 Descending FlightAware ADS-B
Sun 06:59:49 PM 30.2760 -82.9950 123° Southeast 424 488 26,100 -525 Descending FlightAware ADS-B
Sun 07:00:34 PM 30.2340 -82.9170 122° Southeast 422 486 25,900 -148 Descending FlightAware ADS-B
Sun 07:01:10 PM 30.2020 -82.8590 123° Southeast 422 486 25,900 -651 Level FlightAware ADS-B
Sun 07:01:57 PM 30.1420 -82.7530 123° Southeast 419 482 25,000 -667 Descending FlightAware ADS-B
Sun 07:02:31 PM 30.1050 -82.6880 123° Southeast 418 481 25,000  Level FlightAware ADS-B
Sun 07:03:04 PM 30.0720 -82.6270 122° Southeast 418 481 25,000  Level FlightAware ADS-B
Sun 07:03:42 PM 30.0310 -82.5560 124° Southeast 414 476 25,000  Level FlightAware ADS-B
Sun 07:04:13 PM 30.0000 -82.5000 123° Southeast 416 479 25,000  Level FlightAware ADS-B
Sun 07:04:30 PM 29.9780 -82.4690 129° Southeast 420 483 25,000  Level FlightAware ADS-B
Sun 07:04:50 PM 29.9450 -82.4440 147° Southeast 425 489 25,000  Level FlightAware ADS-B
Sun 07:05:23 PM 29.8840 -82.4220 163° South 428 493 25,000  Level FlightAware ADS-B
Sun 07:06:00 PM 29.8140 -82.3970 163° South 430 495 25,000  Level FlightAware ADS-B
Sun 07:06:36 PM 29.7450 -82.3720 163° South 430 495 25,000  Level FlightAware ADS-B
Sun 07:07:13 PM 29.6750 -82.3460 162° South 429 494 25,000  Level FlightAware ADS-B
Sun 07:07:44 PM 29.6160 -82.3250 163° South 429 494 25,000 -627 Level FlightAware ADS-B
Sun 07:08:20 PM 29.5480 -82.3010 163° South 430 495 24,300 -1,606 Descending FlightAware ADS-B
Sun 07:08:55 PM 29.4820 -82.2770 162° South 426 490 23,100 -2,083 Descending FlightAware ADS-B
Sun 07:09:32 PM 29.4120 -82.2520 163° South 422 486 21,800 -2,057 Descending FlightAware ADS-B
Sun 07:10:05 PM 29.3500 -82.2300 163° South 418 481 20,700 -2,000 Descending FlightAware ADS-B
Sun 07:10:41 PM 29.2830 -82.2060 163° South 412 474 19,500 -2,055 Descending FlightAware ADS-B
Sun 07:11:18 PM 29.2160 -82.1820 163° South 403 464 18,200 -2,000 Descending FlightAware ADS-B
Sun 07:11:50 PM 29.1630 -82.1560 157° South 393 452 17,200 -1,970 Descending FlightAware ADS-B
Sun 07:12:25 PM 29.1070 -82.1210 151° Southeast 384 442 16,000 -1,917 Descending FlightAware ADS-B
Sun 07:13:02 PM 29.0500 -82.0860 152° Southeast 374 430 14,900 -1,833 Descending FlightAware ADS-B
Sun 07:13:37 PM 28.9980 -82.0540 152° Southeast 365 420 13,800 -1,875 Descending FlightAware ADS-B
Sun 07:13:50 PM 28.9800 -82.0390 144° Southeast 360 414 13,400 -1,714 Descending FlightAware ADS-B
Sun 07:14:26 PM 28.9380 -81.9920 136° Southeast 352 405 12,400 -1,739 Descending FlightAware ADS-B
Sun 07:14:59 PM 28.8990 -81.9490 136° Southeast 345 397 11,400 -1,235 Descending FlightAware ADS-B
Sun 07:15:34 PM 28.8660 -81.9000 128° Southeast 343 395 11,000 -338 Descending FlightAware ADS-B
Sun 07:16:10 PM 28.8340 -81.8450 124° Southeast 340 391 11,000  Level FlightAware ADS-B
Sun 07:16:42 PM 28.8050 -81.7960 124° Southeast 339 390 11,000 -125 Level FlightAware ADS-B
Sun 07:16:58 PM 28.7910 -81.7750 127° Southeast 341 392 10,900 -577 Descending FlightAware ADS-B
Sun 07:17:34 PM 28.7440 -81.7360 144° Southeast 340 391 10,500 -696 Descending FlightAware ADS-B
Sun 07:18:07 PM 28.7010 -81.7030 146° Southeast 336 387 10,100 -429 Descending FlightAware ADS-B
Sun 07:18:44 PM 28.6540 -81.6650 145° Southeast 338 389 10,000 -92 Descending FlightAware ADS-B
Sun 07:19:12 PM 28.6180 -81.6370 146° Southeast 334 384 10,000  Level FlightAware ADS-B
Sun 07:19:39 PM 28.5860 -81.6120 146° Southeast 306 352 10,000 -409 Level FlightAware ADS-B
Sun 07:19:56 PM 28.5680 -81.5970 144° Southeast 298 343 9,700 -1,500 Descending FlightAware ADS-B
Sun 07:20:15 PM 28.5440 -81.5790 147° Southeast 299 344 9,100 -1,737 Descending FlightAware ADS-B
Sun 07:20:34 PM 28.5220 -81.5610 144° Southeast 302 348 8,600 -1,273 Descending FlightAware ADS-B
Sun 07:20:48 PM 28.5070 -81.5490 145° Southeast 293 337 8,400 -1,263 Descending FlightAware ADS-B
Sun 07:21:12 PM 28.4800 -81.5280 146° Southeast 290 334 7,800 -1,765 Descending FlightAware ADS-B
Sun 07:21:22 PM 28.4680 -81.5190 147° Southeast 291 335 7,400 -1,765 Descending FlightAware ADS-B
Sun 07:21:46 PM 28.4420 -81.4980 145° Southeast 289 333 6,800 -1,733 Descending FlightAware ADS-B
Sun 07:22:07 PM 28.4190 -81.4800 145° Southeast 284 327 6,100 -1,941 Descending FlightAware ADS-B
Sun 07:22:20 PM 28.4050 -81.4690 145° Southeast 282 325 5,700 -1,200 Descending FlightAware ADS-B
Sun 07:22:42 PM 28.3820 -81.4510 145° Southeast 261 300 5,400 -955 Descending FlightAware ADS-B
Sun 07:23:04 PM 28.3610 -81.4340 145° Southeast 244 281 5,000 -1,143 Descending FlightAware ADS-B
Sun 07:23:24 PM 28.3430 -81.4240 154° Southeast 241 277 4,600 -1,500 Descending FlightAware ADS-B
Sun 07:23:32 PM 28.3330 -81.4230 175° South 240 276 4,300 -1,714 Descending FlightAware ADS-B
Sun 07:23:52 PM 28.3110 -81.4220 178° South 238 274 3,800 -1,500 Descending FlightAware ADS-B
Sun 07:23:56 PM 28.3060 -81.4210 170° South 237 273 3,700 -1,385 Descending FlightAware ADS-B
Sun 07:24:05 PM 28.2990 -81.4170 153° Southeast 234 269 3,500 -1,412 Descending FlightAware ADS-B
Sun 07:24:13 PM 28.2920 -81.4100 139° Southeast 229 264 3,300 -1,600 Descending FlightAware ADS-B
Sun 07:24:20 PM 28.2880 -81.4020 120° Southeast 225 259 3,100 -1,714 Descending FlightAware ADS-B
Sun 07:24:27 PM 28.2860 -81.3960 111° Southeast 220 253 2,900 -1,135 Descending FlightAware ADS-B
Sun 07:24:57 PM 28.2860 -81.3640 90° East 199 229 2,400 -980 Descending FlightAware ADS-B
Sun 07:25:16 PM 28.2880 -81.3430 84° East 193 222 2,100 -889 Descending FlightAware ADS-B
Sun 07:25:24 PM 28.2890 -81.3380 77° East 193 222 2,000 -857 Descending FlightAware ADS-B
Sun 07:25:51 PM 28.3110 -81.3260 26° Northeast 190 219 1,600 -545 Descending FlightAware ADS-B
Sun 07:26:08 PM 28.3240 -81.3260 360° North 177 204 1,600  Level FlightAware ADS-B
Sun 07:26:34 PM 28.3430 -81.3270 357° North 177 204 1,600 -545 Level FlightAware ADS-B
Sun 07:26:52 PM 28.3580 -81.3260 North 152 175 1,200 -947 Descending FlightAware ADS-B
Sun 07:27:12 PM 28.3720 -81.3260 360° North 141 162 1,000 -255 Descending FlightAware ADS-B
Sun 07:27:39 PM 28.3870 -81.3270 357° North 141 162 1,000  Level FlightAware ADS-B
Sun 07:35:00 PM 28.4167 -81.3000 24° Northeast  Level FlightAware Approximate
Sun 07:36:00 PM 28.4294 -81.3090 24° Northeast  Level Estimated
Sun 07:37:00 PM 28.4294 -81.3090 24° Northeast  Level Estimated
Sun 07:38:00 PM 28.4294 -81.3090 24° Northeast  Level Estimated
Sun 07:39:00 PM 28.4294 -81.3090 24° Northeast  Level Estimated

Login

Don't have an account? Register now (free) for customized features, flight alerts, and more!